Impacts TAF Board
For situational awareness. Not to be used for flight planning purposes.
IDs:

KHOB - Hobbs Arpt, NM, US

Issued at 1720 UTC 08 Aug 2020
Updated at 2021 UTC 08 Aug 2020
Potential Impact None Slight Moderate High
Time1950Z 08/21Z 08/22Z 08/23Z 09/00Z 09/01Z 09/02Z 09/03Z 09/04Z 09/05Z 09/06Z 09/07Z 09/08Z 09/09Z>>
Type OBS PRVL PRVL PRVL PRVL PRVL PRVL PRVL PRVL PRVL PRVL PRVL PRVL PRVL
VIS 10 >6 >6 >6 >6 >6 >6 >6 >6 >6 >6 >6 >6 >6
CIG -- -- -- -- -- -- -- -- -- -- -- -- -- --
Cover SKC SCT SCT SCT SCT SCT SCT SCT SCT SCT SCT SCT SCT SCT
FltCat VFR VFR VFR VFR VFR VFR VFR VFR VFR VFR VFR VFR VFR VFR
WX -- -- -- -- -- -- -- -- -- -- -- -- -- --
WDir 200 140 140 140 140 140 140 140 140 140 140 140 140 140
WSpd 10 11 11 11 11 11 11 11 11 11 11 11 11 11
WGst 16 -- -- -- -- -- -- -- -- -- -- -- -- --
Raw TAF
KHOB 081720Z 0818/0918 14011KT P6SM FEW100 SCT250

Raw METAR
KHOB 081950Z 20010G16KT 10SM SKC 34/11 A3011
KHOB 081850Z 19008G18KT 10SM SKC 32/13 A3013
KHOB 081750Z 17010KT 10SM SKC 30/15 A3015

METAR Board
Radar Display
Forecast Discussion
For situational awareness. Not to be used for flight planning purposes.